createdAt,value
2018-10-16T00:00:29.786Z,77.43
2018-10-16T00:02:58.342Z,77.63
2018-10-16T00:05:27.142Z,77.96
2018-10-16T00:07:55.713Z,77.62
2018-10-16T00:10:29.694Z,77.45
2018-10-16T00:12:58.413Z,77.17
2018-10-16T00:15:26.855Z,77.38
2018-10-16T00:17:55.810Z,77.41
2018-10-16T00:20:24.782Z,77.34
2018-10-16T00:23:00.177Z,77.42
2018-10-16T00:25:28.943Z,77.45
2018-10-16T00:27:57.385Z,78.04
2018-10-16T00:30:26.237Z,78.10
2018-10-16T00:32:54.783Z,78.43
2018-10-16T00:35:23.209Z,78.83
2018-10-16T00:37:52.049Z,78.69
2018-10-16T00:40:20.809Z,78.90
2018-10-16T00:42:49.290Z,78.77
2018-10-16T00:45:17.838Z,79.17
2018-10-16T00:47:46.557Z,79.20
2018-10-16T00:50:15.002Z,79.08
2018-10-16T00:52:43.854Z,78.88
2018-10-16T00:55:12.399Z,78.98
2018-10-16T00:57:41.177Z,78.87
2018-10-16T01:00:11.381Z,79.21
2018-10-16T01:02:40.206Z,79.34
2018-10-16T01:05:09.727Z,78.97
2018-10-16T01:07:38.731Z,79.16
2018-10-16T01:10:07.781Z,79.18
2018-10-16T01:12:36.346Z,79.28
2018-10-16T01:15:05.345Z,79.30
2018-10-16T01:17:34.074Z,79.42
2018-10-16T01:20:02.950Z,79.54
2018-10-16T01:22:31.766Z,79.67
2018-10-16T01:25:01.042Z,79.73
2018-10-16T01:27:29.477Z,79.75
2018-10-16T01:29:58.026Z,80.04
2018-10-16T01:32:26.566Z,80.18
2018-10-16T01:34:55.006Z,80.13
2018-10-16T01:37:23.813Z,80.02
2018-10-16T01:39:52.612Z,80.23
2018-10-16T01:42:21.045Z,80.12
2018-10-16T01:44:49.625Z,80.09
2018-10-16T01:47:18.277Z,80.12
2018-10-16T01:49:46.725Z,80.57
2018-10-16T01:52:15.617Z,80.63
2018-10-16T01:54:44.425Z,80.52
2018-10-16T01:57:12.959Z,80.75
2018-10-16T01:59:41.736Z,80.93
2018-10-16T02:02:10.305Z,80.73
2018-10-16T02:04:38.888Z,80.95
2018-10-16T02:07:07.481Z,81.09
2018-10-16T02:09:36.181Z,80.81
2018-10-16T02:12:04.673Z,80.77
2018-10-16T02:14:33.622Z,80.59
2018-10-16T02:17:02.183Z,80.75
2018-10-16T02:19:30.616Z,80.69
2018-10-16T02:22:00.249Z,80.40
2018-10-16T02:24:28.894Z,80.61
2018-10-16T02:26:57.374Z,80.58
2018-10-16T02:29:26.754Z,80.55
2018-10-16T02:31:55.354Z,80.82
2018-10-16T02:34:23.804Z,80.91
2018-10-16T02:36:52.581Z,80.63
2018-10-16T02:39:21.120Z,80.85
2018-10-16T02:41:49.582Z,81.18
2018-10-16T02:44:18.322Z,81.42
2018-10-16T02:46:46.850Z,81.27
2018-10-16T02:49:15.314Z,81.07
2018-10-16T02:51:44.379Z,81.69
2018-10-16T02:54:12.897Z,81.32
2018-10-16T02:56:41.331Z,81.59
2018-10-16T02:59:10.133Z,81.57
2018-10-16T03:01:39.565Z,81.70
2018-10-16T03:04:08.173Z,81.75
2018-10-16T03:06:36.820Z,81.77
2018-10-16T03:09:07.777Z,81.76
2018-10-16T03:11:36.234Z,81.96
2018-10-16T03:14:04.861Z,81.80
2018-10-16T03:16:33.738Z,81.99
2018-10-16T03:19:02.253Z,82.00
2018-10-16T03:21:30.866Z,82.28
2018-10-16T03:23:59.790Z,82.35
2018-10-16T03:26:28.233Z,82.55
2018-10-16T03:28:56.898Z,82.41
2018-10-16T03:31:25.534Z,82.71
2018-10-16T03:33:53.997Z,82.62
2018-10-16T03:36:23.237Z,82.62
2018-10-16T03:38:51.793Z,82.66
2018-10-16T03:41:20.213Z,82.56
2018-10-16T03:43:55.926Z,82.88
2018-10-16T03:46:24.369Z,83.02
2018-10-16T03:48:52.837Z,82.72
2018-10-16T03:51:21.869Z,82.84
2018-10-16T03:53:51.261Z,82.89
2018-10-16T03:56:19.770Z,83.15
2018-10-16T03:58:48.389Z,83.12
2018-10-16T04:01:16.865Z,83.06
2018-10-16T04:03:45.326Z,83.22
2018-10-16T04:06:14.171Z,82.90
2018-10-16T04:08:42.670Z,83.11
2018-10-16T04:11:11.108Z,83.11
2018-10-16T04:13:39.765Z,83.14
2018-10-16T04:16:08.413Z,83.17
2018-10-16T04:18:36.929Z,83.34
2018-10-16T04:21:05.630Z,83.16
2018-10-16T04:23:34.087Z,83.39
2018-10-16T04:26:02.971Z,83.21
2018-10-16T04:28:31.612Z,83.24
2018-10-16T04:31:00.325Z,83.44
2018-10-16T04:33:28.761Z,83.32
2018-10-16T04:35:58.070Z,83.21
2018-10-16T04:38:27.048Z,83.22
2018-10-16T04:40:55.766Z,83.08
2018-10-16T04:43:24.745Z,83.24
2018-10-16T04:45:53.261Z,83.24
2018-10-16T04:48:22.141Z,83.16
2018-10-16T04:50:51.106Z,83.22
2018-10-16T04:53:19.560Z,83.16
2018-10-16T04:55:47.998Z,83.07
2018-10-16T04:58:17.191Z,83.01
2018-10-16T05:00:45.801Z,83.08
2018-10-16T05:03:14.259Z,83.17
2018-10-16T05:05:43.026Z,82.70
2018-10-16T05:08:11.466Z,82.87
2018-10-16T05:10:40.016Z,83.01
2018-10-16T05:13:09.079Z,82.92
2018-10-16T05:15:37.430Z,82.74
2018-10-16T05:18:05.887Z,82.78
2018-10-16T05:20:35.335Z,83.02
2018-10-16T05:23:04.028Z,82.80
2018-10-16T05:25:32.455Z,82.87
2018-10-16T05:28:01.925Z,83.12
2018-10-16T05:30:30.373Z,82.81
2018-10-16T05:32:58.822Z,83.05
2018-10-16T05:35:27.782Z,82.73
2018-10-16T05:37:56.217Z,82.72
2018-10-16T05:40:24.658Z,82.65
2018-10-16T05:42:53.801Z,82.80
2018-10-16T05:45:22.305Z,82.77
2018-10-16T05:47:50.797Z,82.78
2018-10-16T05:50:19.866Z,82.82
2018-10-16T05:52:48.363Z,82.72
2018-10-16T05:55:16.795Z,82.89
2018-10-16T05:57:45.497Z,82.69
2018-10-16T06:00:25.089Z,82.81
2018-10-16T06:02:53.916Z,82.67
2018-10-16T06:05:22.357Z,82.80
2018-10-16T06:07:50.785Z,82.84
2018-10-16T06:10:19.646Z,82.60
2018-10-16T06:12:48.373Z,82.73
2018-10-16T06:15:17.102Z,82.89
2018-10-16T06:17:46.153Z,82.89
2018-10-16T06:20:14.606Z,82.85
2018-10-16T06:22:43.670Z,82.99
2018-10-16T06:25:12.579Z,82.92
2018-10-16T06:27:42.436Z,82.78
2018-10-16T06:30:11.374Z,82.65
2018-10-16T06:32:40.350Z,82.50
2018-10-16T06:35:09.808Z,82.42
2018-10-16T06:37:38.527Z,82.18
2018-10-16T06:40:08.067Z,82.34
2018-10-16T06:42:36.841Z,82.01
2018-10-16T06:45:06.776Z,81.79
2018-10-16T06:47:35.973Z,81.68
2018-10-16T06:50:05.048Z,81.44
2018-10-16T06:52:33.502Z,81.10
2018-10-16T06:55:02.598Z,81.05
2018-10-16T06:57:31.049Z,81.07
2018-10-16T06:59:59.865Z,81.30
2018-10-16T07:02:28.950Z,80.96
2018-10-16T07:04:57.476Z,81.26
2018-10-16T07:07:26.090Z,81.25
2018-10-16T07:09:55.159Z,81.00
2018-10-16T07:12:23.747Z,81.61
2018-10-16T07:14:52.278Z,81.92
2018-10-16T07:17:20.989Z,81.38
2018-10-16T07:19:49.481Z,81.24
2018-10-16T07:22:17.922Z,80.66
2018-10-16T07:24:47.273Z,79.33
2018-10-16T07:27:15.718Z,78.14
2018-10-16T07:29:44.179Z,77.16
2018-10-16T07:32:13.234Z,76.88
2018-10-16T07:34:41.692Z,76.52
2018-10-16T07:37:10.179Z,75.14
2018-10-16T07:39:39.254Z,74.22
2018-10-16T07:42:07.940Z,73.91
2018-10-16T07:44:36.431Z,72.59
2018-10-16T07:47:05.145Z,72.63
2018-10-16T07:49:33.605Z,72.25
2018-10-16T07:52:02.068Z,72.10
2018-10-16T07:54:31.355Z,71.45
2018-10-16T07:56:59.888Z,71.14
2018-10-16T07:59:28.339Z,70.01
2018-10-16T08:01:57.151Z,69.29
2018-10-16T08:04:25.674Z,69.12
2018-10-16T08:06:54.145Z,68.79
2018-10-16T08:09:22.839Z,68.67
2018-10-16T08:11:51.521Z,68.87
2018-10-16T08:14:20.962Z,68.86
2018-10-16T08:16:50.649Z,68.37
2018-10-16T08:19:19.255Z,68.82
2018-10-16T08:21:48.213Z,68.83
2018-10-16T08:24:17.101Z,69.11
2018-10-16T08:26:45.630Z,68.88
2018-10-16T08:29:14.318Z,69.46
2018-10-16T08:31:43.484Z,69.14
2018-10-16T08:34:12.108Z,69.49
2018-10-16T08:36:40.705Z,69.81
2018-10-16T08:39:13.177Z,69.75
2018-10-16T08:44:13.152Z,69.90
2018-10-16T08:46:52.935Z,69.62
2018-10-16T08:49:32.609Z,69.87
2018-10-16T08:52:01.822Z,70.21
2018-10-16T08:54:30.281Z,70.29
2018-10-16T08:56:58.805Z,70.40
2018-10-16T08:59:27.873Z,70.38
2018-10-16T09:01:56.364Z,70.60
2018-10-16T09:04:24.874Z,70.71
2018-10-16T09:06:54.099Z,70.66
2018-10-16T09:09:22.645Z,70.70
2018-10-16T09:11:51.121Z,70.75
2018-10-16T09:14:20.070Z,70.65
2018-10-16T09:16:48.533Z,70.47
2018-10-16T09:19:17.041Z,70.53
2018-10-16T09:21:46.047Z,70.39
2018-10-16T09:24:14.489Z,70.49
2018-10-16T09:26:42.977Z,70.50
2018-10-16T09:29:11.569Z,70.45
2018-10-16T09:31:40.031Z,70.70
2018-10-16T09:34:08.614Z,70.48
2018-10-16T09:36:38.162Z,70.44
2018-10-16T09:39:09.407Z,70.53
2018-10-16T09:41:38.050Z,70.62
2018-10-16T09:44:06.701Z,70.58
2018-10-16T09:46:35.221Z,70.80
2018-10-16T09:49:03.664Z,70.88
2018-10-16T09:51:32.313Z,70.83
2018-10-16T09:54:01.006Z,71.08
2018-10-16T09:56:29.548Z,71.04
2018-10-16T09:58:58.796Z,71.21
2018-10-16T10:01:32.467Z,71.35
2018-10-16T10:04:01.388Z,71.23
2018-10-16T10:06:29.838Z,71.42
2018-10-16T10:08:58.338Z,71.50
2018-10-16T10:11:27.058Z,71.47
2018-10-16T10:13:55.507Z,71.57
2018-10-16T10:16:24.269Z,71.71
2018-10-16T10:18:52.897Z,71.74
2018-10-16T10:21:21.345Z,71.71
2018-10-16T10:23:49.832Z,71.75
2018-10-16T10:26:18.955Z,71.70
2018-10-16T10:28:47.927Z,71.55
2018-10-16T10:31:16.447Z,71.61
2018-10-16T10:33:45.666Z,71.55
2018-10-16T10:36:14.134Z,71.55
2018-10-16T10:38:42.783Z,71.43
2018-10-16T10:41:11.971Z,71.46
2018-10-16T10:43:40.426Z,71.35
2018-10-16T10:46:09.297Z,71.15
2018-10-16T10:48:38.451Z,71.03
2018-10-16T10:51:07.313Z,70.82
2018-10-16T10:53:35.704Z,70.97
2018-10-16T10:56:05.002Z,70.88
2018-10-16T10:58:33.427Z,70.69
2018-10-16T11:01:01.948Z,70.73
2018-10-16T11:03:31.226Z,70.58
2018-10-16T11:05:59.521Z,70.54
2018-10-16T11:08:27.993Z,70.55
2018-10-16T11:10:57.118Z,70.33
2018-10-16T11:13:25.538Z,70.18
2018-10-16T11:15:54.002Z,70.59
2018-10-16T11:18:23.478Z,69.95
2018-10-16T11:20:51.960Z,69.77
2018-10-16T11:23:20.533Z,69.37
2018-10-16T11:25:49.209Z,69.51
2018-10-16T11:28:18.342Z,68.78
2018-10-16T11:30:51.190Z,68.97
2018-10-16T11:33:20.541Z,69.31
2018-10-16T11:35:49.085Z,69.11
2018-10-16T11:38:18.553Z,69.11
2018-10-16T11:40:47.253Z,69.06
2018-10-16T11:43:15.708Z,68.95
2018-10-16T11:45:44.668Z,69.08
2018-10-16T11:48:13.078Z,68.50
2018-10-16T11:50:41.514Z,68.77
2018-10-16T11:53:10.273Z,68.93
2018-10-16T11:55:38.725Z,68.87
2018-10-16T11:58:07.201Z,68.56
2018-10-16T12:00:36.042Z,68.20
2018-10-16T12:03:04.601Z,68.11
2018-10-16T12:05:33.054Z,68.31
2018-10-16T12:08:02.169Z,67.72
2018-10-16T12:10:31.014Z,67.79
2018-10-16T12:12:59.475Z,68.38
2018-10-16T12:15:28.110Z,68.17
2018-10-16T12:18:15.644Z,68.33
2018-10-16T12:20:47.193Z,68.34
2018-10-16T12:23:15.886Z,68.45
2018-10-16T12:25:44.450Z,68.41
2018-10-16T12:28:13.706Z,68.26
2018-10-16T12:30:42.169Z,68.17
2018-10-16T12:33:10.749Z,68.08
2018-10-16T12:35:42.369Z,68.04
2018-10-16T12:38:10.898Z,67.79
2018-10-16T12:40:39.361Z,67.95
2018-10-16T12:43:09.297Z,67.69
2018-10-16T12:45:37.758Z,67.71
2018-10-16T12:48:06.408Z,67.83
2018-10-16T12:50:35.252Z,67.74
2018-10-16T12:53:03.784Z,68.23
2018-10-16T12:55:32.274Z,67.96
2018-10-16T12:58:01.218Z,67.78
2018-10-16T13:00:29.665Z,67.95
2018-10-16T13:02:58.154Z,68.32
2018-10-16T13:05:27.056Z,68.04
2018-10-16T13:07:55.663Z,68.20
2018-10-16T13:10:24.162Z,68.24
2018-10-16T13:12:53.110Z,68.26
2018-10-16T13:15:21.635Z,68.27
2018-10-16T13:17:50.134Z,68.62
2018-10-16T13:20:18.882Z,68.52
2018-10-16T13:22:48.553Z,68.59
2018-10-16T13:25:17.293Z,68.23
2018-10-16T13:27:45.914Z,68.60
2018-10-16T13:30:15.774Z,68.63
2018-10-16T13:32:45.307Z,68.50
2018-10-16T13:35:15.585Z,67.96
2018-10-16T13:37:44.713Z,68.00
2018-10-16T13:40:13.444Z,68.13
2018-10-16T13:42:42.646Z,68.15
2018-10-16T13:45:13.302Z,68.06
2018-10-16T13:47:41.757Z,68.38
2018-10-16T13:50:13.306Z,68.31
2018-10-16T13:52:41.714Z,68.48
2018-10-16T13:55:11.120Z,68.43
2018-10-16T13:57:40.202Z,68.63
2018-10-16T14:00:13.556Z,68.74
2018-10-16T14:02:43.149Z,68.81
2018-10-16T14:05:11.975Z,68.83
2018-10-16T14:07:40.442Z,68.88
2018-10-16T14:10:10.711Z,68.98
2018-10-16T14:12:40.714Z,69.03
2018-10-16T14:15:09.734Z,69.02
2018-10-16T14:17:38.457Z,69.25
2018-10-16T14:20:07.693Z,69.43
2018-10-16T14:22:37.237Z,69.48
2018-10-16T14:25:07.742Z,69.50
2018-10-16T14:27:36.187Z,69.62
2018-10-16T14:30:05.134Z,69.72
2018-10-16T14:32:33.797Z,69.96
2018-10-16T14:35:02.234Z,69.89
2018-10-16T14:37:30.694Z,69.93
2018-10-16T14:39:59.899Z,70.11
2018-10-16T14:42:28.334Z,70.46
2018-10-16T14:44:56.794Z,70.30
2018-10-16T14:47:26.056Z,70.48
2018-10-16T14:49:54.505Z,70.48
2018-10-16T14:52:23.089Z,70.77
2018-10-16T14:54:52.138Z,70.87
2018-10-16T14:57:20.980Z,70.99
2018-10-16T14:59:49.549Z,70.88
2018-10-16T15:02:18.622Z,71.03
2018-10-16T15:04:47.078Z,71.08
2018-10-16T15:07:15.669Z,71.20
2018-10-16T15:09:44.387Z,71.22
2018-10-16T15:12:12.826Z,71.44
2018-10-16T15:14:41.315Z,71.21
2018-10-16T15:17:10.051Z,71.55
2018-10-16T15:19:38.506Z,71.66
2018-10-16T15:22:07.036Z,71.54
2018-10-16T15:24:36.210Z,71.86
2018-10-16T15:27:04.973Z,71.71
2018-10-16T15:29:33.410Z,71.70
2018-10-16T15:32:02.124Z,71.76
2018-10-16T15:34:30.519Z,71.87
2018-10-16T15:36:58.981Z,72.10
2018-10-16T15:39:27.634Z,71.97
2018-10-16T15:41:56.251Z,71.91
2018-10-16T15:44:24.762Z,72.04
2018-10-16T15:46:53.458Z,72.02
2018-10-16T15:49:22.841Z,72.24
2018-10-16T15:51:51.573Z,72.10
2018-10-16T15:54:21.040Z,72.21
2018-10-16T15:56:49.498Z,72.11
2018-10-16T15:59:17.951Z,72.26
2018-10-16T16:01:46.927Z,72.09
2018-10-16T16:04:15.349Z,72.34
2018-10-16T16:06:43.856Z,72.16
2018-10-16T16:09:13.574Z,72.27
2018-10-16T16:11:42.185Z,72.20
2018-10-16T16:14:10.727Z,72.29
2018-10-16T16:16:39.439Z,72.30
2018-10-16T16:19:08.173Z,72.35
2018-10-16T16:21:36.625Z,72.43
2018-10-16T16:24:05.389Z,72.61
2018-10-16T16:26:33.842Z,72.45
2018-10-16T16:29:02.294Z,72.69
2018-10-16T16:31:31.378Z,72.83
2018-10-16T16:33:59.854Z,72.92
2018-10-16T16:36:28.378Z,73.16
2018-10-16T16:38:57.414Z,73.05
2018-10-16T16:41:25.857Z,73.27
2018-10-16T16:43:54.651Z,73.43
2018-10-16T16:46:23.713Z,73.58
2018-10-16T16:48:52.229Z,73.74
2018-10-16T16:51:21.337Z,74.02
2018-10-16T16:53:50.694Z,73.89
2018-10-16T16:56:19.200Z,74.31
2018-10-16T16:58:47.658Z,74.27
2018-10-16T17:01:16.781Z,74.38
2018-10-16T17:03:45.247Z,74.69
2018-10-16T17:06:13.743Z,74.41
2018-10-16T17:08:42.514Z,74.58
2018-10-16T17:11:10.941Z,74.88
2018-10-16T17:13:39.404Z,74.73
2018-10-16T17:16:08.108Z,75.25
2018-10-16T17:18:36.617Z,75.12
2018-10-16T17:21:05.842Z,74.77
2018-10-16T17:23:34.926Z,75.28
2018-10-16T17:26:05.515Z,75.08
2018-10-16T17:28:33.752Z,74.96
2018-10-16T17:31:02.779Z,75.06
2018-10-16T17:33:31.222Z,75.31
2018-10-16T17:35:59.810Z,75.33
2018-10-16T17:38:28.585Z,75.82
2018-10-16T17:40:57.029Z,76.02
2018-10-16T17:43:25.610Z,75.97
2018-10-16T17:45:55.086Z,75.67
2018-10-16T17:48:23.630Z,75.97
2018-10-16T17:50:52.077Z,76.03
2018-10-16T17:53:20.980Z,76.05
2018-10-16T17:55:49.438Z,76.20
2018-10-16T17:58:17.899Z,75.86
2018-10-16T18:00:47.078Z,76.10
2018-10-16T18:03:15.688Z,76.31
2018-10-16T18:05:44.129Z,76.24
2018-10-16T18:08:14.790Z,76.13
2018-10-16T18:10:43.237Z,76.72
2018-10-16T18:13:11.665Z,76.30
2018-10-16T18:15:40.480Z,76.56
2018-10-16T18:18:08.936Z,76.50
2018-10-16T18:20:37.385Z,76.48
2018-10-16T18:23:06.807Z,76.47
2018-10-16T18:25:35.242Z,76.50
2018-10-16T18:28:03.706Z,76.85
2018-10-16T18:30:32.341Z,76.43
2018-10-16T18:33:00.810Z,76.60
2018-10-16T18:35:29.262Z,76.95
2018-10-16T18:37:58.545Z,76.41
2018-10-16T18:40:27.079Z,76.03
2018-10-16T18:42:55.530Z,76.67
2018-10-16T18:45:24.214Z,76.52
2018-10-16T18:47:52.742Z,76.43
2018-10-16T18:50:21.178Z,76.54
2018-10-16T18:52:50.667Z,76.91
2018-10-16T18:55:19.287Z,77.03
2018-10-16T18:57:47.736Z,77.14
2018-10-16T19:00:18.932Z,76.79
2018-10-16T19:02:48.196Z,76.88
2018-10-16T19:05:16.697Z,76.86
2018-10-16T19:07:45.583Z,76.90
2018-10-16T19:10:14.058Z,77.36
2018-10-16T19:12:42.838Z,77.21
2018-10-16T19:15:13.051Z,77.35
2018-10-16T19:17:42.158Z,77.20
2018-10-16T19:20:11.903Z,77.37
2018-10-16T19:22:41.037Z,77.98
2018-10-16T19:25:10.402Z,77.66
2018-10-16T19:27:39.001Z,77.65
2018-10-16T19:30:09.058Z,77.68
2018-10-16T19:32:37.850Z,77.83
2018-10-16T19:35:06.981Z,78.01
2018-10-16T19:37:35.946Z,77.91
2018-10-16T19:40:04.467Z,78.01
2018-10-16T19:42:33.953Z,78.02
2018-10-16T19:45:02.967Z,77.94
2018-10-16T19:47:31.592Z,78.26
2018-10-16T19:50:00.131Z,77.80
2018-10-16T19:52:29.093Z,77.76
2018-10-16T19:54:57.631Z,78.01
2018-10-16T19:57:26.305Z,78.21
2018-10-16T19:59:55.009Z,78.34
2018-10-16T20:02:23.545Z,78.19
2018-10-16T20:04:52.036Z,78.39
2018-10-16T20:07:21.105Z,78.46
2018-10-16T20:09:49.743Z,78.64
2018-10-16T20:12:18.324Z,78.71
2018-10-16T20:14:46.971Z,78.84
2018-10-16T20:17:15.437Z,79.00
2018-10-16T20:19:43.956Z,78.99
2018-10-16T20:22:12.772Z,79.10
2018-10-16T20:24:41.304Z,79.41
2018-10-16T20:27:09.752Z,79.32
2018-10-16T20:29:38.922Z,79.72
2018-10-16T20:32:07.672Z,79.72
2018-10-16T20:34:36.120Z,79.80
2018-10-16T20:37:05.052Z,79.82
2018-10-16T20:39:33.542Z,79.61
2018-10-16T20:42:02.054Z,80.19
2018-10-16T20:44:30.904Z,80.08
2018-10-16T20:46:59.600Z,80.06
2018-10-16T20:49:28.249Z,80.06
2018-10-16T20:51:57.413Z,80.15
2018-10-16T20:54:25.954Z,80.39
2018-10-16T20:56:54.625Z,80.32
2018-10-16T20:59:23.782Z,80.25
2018-10-16T21:01:52.249Z,80.38
2018-10-16T21:04:20.713Z,80.53
2018-10-16T21:06:49.994Z,80.27
2018-10-16T21:09:18.433Z,80.57
2018-10-16T21:11:46.881Z,80.50
2018-10-16T21:14:15.871Z,80.73
2018-10-16T21:16:44.298Z,80.82
2018-10-16T21:19:12.858Z,80.79
2018-10-16T21:21:41.928Z,81.05
2018-10-16T21:24:10.562Z,80.80
2018-10-16T21:26:39.025Z,81.11
2018-10-16T21:29:08.341Z,81.35
2018-10-16T21:31:36.765Z,81.17
2018-10-16T21:34:05.333Z,81.18
2018-10-16T21:36:34.713Z,81.02
2018-10-16T21:39:03.654Z,81.07
2018-10-16T21:41:32.096Z,81.33
2018-10-16T21:44:00.953Z,81.53
2018-10-16T21:46:29.422Z,81.33
2018-10-16T21:48:57.910Z,81.54
2018-10-16T21:51:28.305Z,81.24
2018-10-16T21:53:56.788Z,81.50
2018-10-16T21:56:25.332Z,81.14
2018-10-16T21:58:54.457Z,81.11
2018-10-16T22:01:27.234Z,81.46
2018-10-16T22:03:55.900Z,81.19
2018-10-16T22:06:24.337Z,81.35
2018-10-16T22:08:52.768Z,81.72
2018-10-16T22:11:21.940Z,81.37
2018-10-16T22:13:50.586Z,81.41
2018-10-16T22:16:19.211Z,81.61
2018-10-16T22:18:48.442Z,81.45
2018-10-16T22:21:16.872Z,81.60
2018-10-16T22:23:45.297Z,81.35
2018-10-16T22:26:13.927Z,81.21
2018-10-16T22:28:42.867Z,81.12
2018-10-16T22:31:11.591Z,81.33
2018-10-16T22:33:40.200Z,81.47
2018-10-16T22:36:08.696Z,81.31
2018-10-16T22:38:37.151Z,81.42
2018-10-16T22:41:06.710Z,81.49
2018-10-16T22:43:35.205Z,81.30
2018-10-16T22:46:03.683Z,81.26
2018-10-16T22:48:32.734Z,80.79
2018-10-16T22:51:01.249Z,81.01
2018-10-16T22:53:29.698Z,81.13
2018-10-16T22:55:58.889Z,81.28
2018-10-16T22:58:27.389Z,80.93
2018-10-16T23:00:56.302Z,81.27
2018-10-16T23:03:25.410Z,80.88
2018-10-16T23:05:53.852Z,81.27
2018-10-16T23:08:22.281Z,81.15
2018-10-16T23:10:51.106Z,81.18
2018-10-16T23:13:19.548Z,81.30
2018-10-16T23:15:48.686Z,81.26
2018-10-16T23:18:17.504Z,81.23
2018-10-16T23:20:45.953Z,81.79
2018-10-16T23:23:14.475Z,81.85
2018-10-16T23:25:43.630Z,81.72
2018-10-16T23:28:12.141Z,81.94
2018-10-16T23:30:40.577Z,81.79
2018-10-16T23:33:09.201Z,81.76
2018-10-16T23:35:37.629Z,82.46
2018-10-16T23:38:06.357Z,82.19
2018-10-16T23:40:35.004Z,81.90
2018-10-16T23:43:03.490Z,82.06
2018-10-16T23:45:31.958Z,82.10
2018-10-16T23:48:00.861Z,82.62
2018-10-16T23:50:29.301Z,82.65
2018-10-16T23:52:57.879Z,82.49
2018-10-16T23:55:26.544Z,82.74
2018-10-16T23:57:54.968Z,82.91
